sensor_id;sensor_type;location;lat;lon;timestamp;temperature;humidity
55213;DHT22;41083;52.932;6.674;2023-04-03T00:01:33;3.70;99.90
55213;DHT22;41083;52.932;6.674;2023-04-03T00:03:59;3.70;99.90
55213;DHT22;41083;52.932;6.674;2023-04-03T00:06:25;3.60;99.90
55213;DHT22;41083;52.932;6.674;2023-04-03T00:08:51;3.60;99.90
55213;DHT22;41083;52.932;6.674;2023-04-03T00:11:17;3.60;99.90
55213;DHT22;41083;52.932;6.674;2023-04-03T00:13:43;3.50;99.90
55213;DHT22;41083;52.932;6.674;2023-04-03T00:16:10;3.50;99.90
55213;DHT22;41083;52.932;6.674;2023-04-03T00:18:37;3.50;99.90
55213;DHT22;41083;52.932;6.674;2023-04-03T00:21:03;3.50;99.90
55213;DHT22;41083;52.932;6.674;2023-04-03T00:23:29;3.50;99.90
55213;DHT22;41083;52.932;6.674;2023-04-03T00:25:54;3.50;99.90
55213;DHT22;41083;52.932;6.674;2023-04-03T00:28:21;3.50;99.90
55213;DHT22;41083;52.932;6.674;2023-04-03T00:30:48;3.40;99.90
55213;DHT22;41083;52.932;6.674;2023-04-03T00:33:14;3.40;99.90
55213;DHT22;41083;52.932;6.674;2023-04-03T00:35:40;3.40;99.90
55213;DHT22;41083;52.932;6.674;2023-04-03T00:38:05;3.40;99.90
55213;DHT22;41083;52.932;6.674;2023-04-03T00:40:37;3.40;99.90
55213;DHT22;41083;52.932;6.674;2023-04-03T00:43:12;3.40;99.90
55213;DHT22;41083;52.932;6.674;2023-04-03T00:45:40;3.40;99.90
55213;DHT22;41083;52.932;6.674;2023-04-03T00:48:08;3.30;99.90
55213;DHT22;41083;52.932;6.674;2023-04-03T00:50:37;3.30;99.90
55213;DHT22;41083;52.932;6.674;2023-04-03T00:53:05;3.30;99.90
55213;DHT22;41083;52.932;6.674;2023-04-03T00:55:32;3.30;99.90
55213;DHT22;41083;52.932;6.674;2023-04-03T00:58:00;3.30;99.90
55213;DHT22;41083;52.932;6.674;2023-04-03T01:00:26;3.30;99.90
55213;DHT22;41083;52.932;6.674;2023-04-03T01:02:53;3.30;99.90
55213;DHT22;41083;52.932;6.674;2023-04-03T01:05:20;3.20;99.90
55213;DHT22;41083;52.932;6.674;2023-04-03T01:07:47;3.20;99.90
55213;DHT22;41083;52.932;6.674;2023-04-03T01:10:15;3.20;99.90
55213;DHT22;41083;52.932;6.674;2023-04-03T01:12:43;3.20;99.90
55213;DHT22;41083;52.932;6.674;2023-04-03T01:15:15;3.10;99.90
55213;DHT22;41083;52.932;6.674;2023-04-03T01:17:56;3.10;99.90
55213;DHT22;41083;52.932;6.674;2023-04-03T01:26:07;3.10;99.90
55213;DHT22;41083;52.932;6.674;2023-04-03T01:28:36;3.10;99.90
55213;DHT22;41083;52.932;6.674;2023-04-03T01:33:55;3.00;99.90
55213;DHT22;41083;52.932;6.674;2023-04-03T01:36:26;3.00;99.90
55213;DHT22;41083;52.932;6.674;2023-04-03T01:38:53;3.00;99.90
55213;DHT22;41083;52.932;6.674;2023-04-03T01:41:19;3.00;99.90
55213;DHT22;41083;52.932;6.674;2023-04-03T01:43:46;3.00;99.90
55213;DHT22;41083;52.932;6.674;2023-04-03T01:46:13;2.90;99.90
55213;DHT22;41083;52.932;6.674;2023-04-03T01:48:38;2.90;99.90
55213;DHT22;41083;52.932;6.674;2023-04-03T01:51:04;2.90;99.90
55213;DHT22;41083;52.932;6.674;2023-04-03T01:53:30;2.90;99.90
55213;DHT22;41083;52.932;6.674;2023-04-03T01:55:55;2.90;99.90
55213;DHT22;41083;52.932;6.674;2023-04-03T01:58:21;2.90;99.90
55213;DHT22;41083;52.932;6.674;2023-04-03T02:00:46;2.90;99.90
55213;DHT22;41083;52.932;6.674;2023-04-03T02:03:12;2.90;99.90
55213;DHT22;41083;52.932;6.674;2023-04-03T02:05:38;2.90;99.90
55213;DHT22;41083;52.932;6.674;2023-04-03T02:08:04;2.90;99.90
55213;DHT22;41083;52.932;6.674;2023-04-03T02:10:29;2.80;99.90
55213;DHT22;41083;52.932;6.674;2023-04-03T02:12:55;2.80;99.90
55213;DHT22;41083;52.932;6.674;2023-04-03T02:15:21;2.90;99.90
55213;DHT22;41083;52.932;6.674;2023-04-03T02:17:46;2.80;99.90
55213;DHT22;41083;52.932;6.674;2023-04-03T02:20:12;2.80;99.90
55213;DHT22;41083;52.932;6.674;2023-04-03T02:22:38;2.80;99.90
55213;DHT22;41083;52.932;6.674;2023-04-03T02:25:04;2.80;99.90
55213;DHT22;41083;52.932;6.674;2023-04-03T02:27:29;2.80;99.90
55213;DHT22;41083;52.932;6.674;2023-04-03T02:29:55;2.70;99.90
55213;DHT22;41083;52.932;6.674;2023-04-03T02:32:20;2.80;99.90
55213;DHT22;41083;52.932;6.674;2023-04-03T02:34:46;2.70;99.90
55213;DHT22;41083;52.932;6.674;2023-04-03T02:37:12;2.70;99.90
55213;DHT22;41083;52.932;6.674;2023-04-03T02:39:37;2.70;99.90
55213;DHT22;41083;52.932;6.674;2023-04-03T02:42:03;2.70;99.90
55213;DHT22;41083;52.932;6.674;2023-04-03T02:44:29;2.70;99.90
55213;DHT22;41083;52.932;6.674;2023-04-03T02:46:55;2.60;99.90
55213;DHT22;41083;52.932;6.674;2023-04-03T02:49:20;2.60;99.90
55213;DHT22;41083;52.932;6.674;2023-04-03T02:51:46;2.60;99.90
55213;DHT22;41083;52.932;6.674;2023-04-03T02:54:13;2.60;99.90
55213;DHT22;41083;52.932;6.674;2023-04-03T02:56:38;2.60;99.90
55213;DHT22;41083;52.932;6.674;2023-04-03T02:59:04;2.50;99.90
55213;DHT22;41083;52.932;6.674;2023-04-03T03:01:30;2.50;99.90
55213;DHT22;41083;52.932;6.674;2023-04-03T03:03:58;2.50;99.90
55213;DHT22;41083;52.932;6.674;2023-04-03T03:06:24;2.50;99.90
55213;DHT22;41083;52.932;6.674;2023-04-03T03:08:50;2.40;99.90
55213;DHT22;41083;52.932;6.674;2023-04-03T03:11:16;2.40;99.90
55213;DHT22;41083;52.932;6.674;2023-04-03T03:13:41;2.40;99.90
55213;DHT22;41083;52.932;6.674;2023-04-03T03:16:07;2.40;99.90
55213;DHT22;41083;52.932;6.674;2023-04-03T03:18:33;2.30;99.90
55213;DHT22;41083;52.932;6.674;2023-04-03T03:21:00;2.30;99.90
55213;DHT22;41083;52.932;6.674;2023-04-03T03:23:28;2.30;99.90
55213;DHT22;41083;52.932;6.674;2023-04-03T03:26:00;2.20;99.90
55213;DHT22;41083;52.932;6.674;2023-04-03T03:28:26;2.20;99.90
55213;DHT22;41083;52.932;6.674;2023-04-03T03:30:52;2.20;99.90
55213;DHT22;41083;52.932;6.674;2023-04-03T03:33:18;2.20;99.90
55213;DHT22;41083;52.932;6.674;2023-04-03T03:35:44;2.20;99.90
55213;DHT22;41083;52.932;6.674;2023-04-03T03:38:10;2.20;99.90
55213;DHT22;41083;52.932;6.674;2023-04-03T03:40:35;2.10;99.90
55213;DHT22;41083;52.932;6.674;2023-04-03T03:43:01;2.00;99.90
55213;DHT22;41083;52.932;6.674;2023-04-03T03:45:27;2.00;99.90
55213;DHT22;41083;52.932;6.674;2023-04-03T03:47:52;1.90;99.90
55213;DHT22;41083;52.932;6.674;2023-04-03T03:50:18;1.90;99.90
55213;DHT22;41083;52.932;6.674;2023-04-03T03:52:44;1.80;99.90
55213;DHT22;41083;52.932;6.674;2023-04-03T03:55:10;1.80;99.90
55213;DHT22;41083;52.932;6.674;2023-04-03T03:57:36;1.80;99.90
55213;DHT22;41083;52.932;6.674;2023-04-03T04:00:02;1.80;99.90
55213;DHT22;41083;52.932;6.674;2023-04-03T04:02:28;1.80;99.90
55213;DHT22;41083;52.932;6.674;2023-04-03T04:04:54;1.80;99.90
55213;DHT22;41083;52.932;6.674;2023-04-03T04:07:20;1.80;99.90
55213;DHT22;41083;52.932;6.674;2023-04-03T04:09:45;1.80;99.90
55213;DHT22;41083;52.932;6.674;2023-04-03T04:12:11;1.70;99.90
55213;DHT22;41083;52.932;6.674;2023-04-03T04:14:36;1.80;99.90
55213;DHT22;41083;52.932;6.674;2023-04-03T04:17:02;1.80;99.90
55213;DHT22;41083;52.932;6.674;2023-04-03T04:19:28;1.80;99.90
55213;DHT22;41083;52.932;6.674;2023-04-03T04:21:54;1.70;99.90
55213;DHT22;41083;52.932;6.674;2023-04-03T04:24:19;1.70;99.90
55213;DHT22;41083;52.932;6.674;2023-04-03T04:26:45;1.70;99.90
55213;DHT22;41083;52.932;6.674;2023-04-03T04:29:11;1.70;99.90
55213;DHT22;41083;52.932;6.674;2023-04-03T04:31:36;1.70;99.90
55213;DHT22;41083;52.932;6.674;2023-04-03T04:34:02;1.60;99.90
55213;DHT22;41083;52.932;6.674;2023-04-03T04:36:28;1.60;99.90
55213;DHT22;41083;52.932;6.674;2023-04-03T04:38:53;1.60;99.90
55213;DHT22;41083;52.932;6.674;2023-04-03T04:41:20;1.60;99.90
55213;DHT22;41083;52.932;6.674;2023-04-03T04:43:48;1.60;99.90
55213;DHT22;41083;52.932;6.674;2023-04-03T04:46:14;1.60;99.90
55213;DHT22;41083;52.932;6.674;2023-04-03T04:48:40;1.50;99.90
55213;DHT22;41083;52.932;6.674;2023-04-03T04:51:06;1.50;99.90
55213;DHT22;41083;52.932;6.674;2023-04-03T04:53:32;1.60;99.90
55213;DHT22;41083;52.932;6.674;2023-04-03T04:55:58;1.50;99.90
55213;DHT22;41083;52.932;6.674;2023-04-03T04:58:23;1.50;99.90
55213;DHT22;41083;52.932;6.674;2023-04-03T05:00:49;1.60;99.90
55213;DHT22;41083;52.932;6.674;2023-04-03T05:03:15;1.60;99.90
55213;DHT22;41083;52.932;6.674;2023-04-03T05:05:40;1.50;99.90
55213;DHT22;41083;52.932;6.674;2023-04-03T05:08:06;1.60;99.90
55213;DHT22;41083;52.932;6.674;2023-04-03T05:10:33;1.50;99.90
55213;DHT22;41083;52.932;6.674;2023-04-03T05:12:59;1.60;99.90
55213;DHT22;41083;52.932;6.674;2023-04-03T05:15:25;1.60;99.90
55213;DHT22;41083;52.932;6.674;2023-04-03T05:17:50;1.60;99.90
55213;DHT22;41083;52.932;6.674;2023-04-03T05:20:16;1.60;99.90
55213;DHT22;41083;52.932;6.674;2023-04-03T05:22:43;1.60;99.90
55213;DHT22;41083;52.932;6.674;2023-04-03T05:25:08;1.60;99.90
55213;DHT22;41083;52.932;6.674;2023-04-03T05:27:34;1.60;99.90
55213;DHT22;41083;52.932;6.674;2023-04-03T05:30:00;1.60;99.90
55213;DHT22;41083;52.932;6.674;2023-04-03T05:32:26;1.60;99.90
55213;DHT22;41083;52.932;6.674;2023-04-03T05:34:53;1.60;99.90
55213;DHT22;41083;52.932;6.674;2023-04-03T05:37:19;1.60;99.90
55213;DHT22;41083;52.932;6.674;2023-04-03T05:39:45;1.60;99.90
55213;DHT22;41083;52.932;6.674;2023-04-03T05:42:10;1.60;99.90
55213;DHT22;41083;52.932;6.674;2023-04-03T05:44:37;1.70;99.90
55213;DHT22;41083;52.932;6.674;2023-04-03T05:47:04;1.70;99.90
55213;DHT22;41083;52.932;6.674;2023-04-03T05:49:29;1.70;99.90
55213;DHT22;41083;52.932;6.674;2023-04-03T05:51:55;1.70;99.90
55213;DHT22;41083;52.932;6.674;2023-04-03T05:54:27;1.70;99.90
55213;DHT22;41083;52.932;6.674;2023-04-03T05:56:53;1.70;99.90
55213;DHT22;41083;52.932;6.674;2023-04-03T05:59:19;1.70;99.90
55213;DHT22;41083;52.932;6.674;2023-04-03T06:01:46;1.80;99.90
55213;DHT22;41083;52.932;6.674;2023-04-03T06:04:12;1.80;99.90
55213;DHT22;41083;52.932;6.674;2023-04-03T06:06:45;1.80;99.90
55213;DHT22;41083;52.932;6.674;2023-04-03T06:09:11;1.80;99.90
55213;DHT22;41083;52.932;6.674;2023-04-03T06:11:37;1.80;99.90
55213;DHT22;41083;52.932;6.674;2023-04-03T06:14:02;1.80;99.90
55213;DHT22;41083;52.932;6.674;2023-04-03T06:16:28;1.80;99.90
55213;DHT22;41083;52.932;6.674;2023-04-03T06:18:54;1.80;99.90
55213;DHT22;41083;52.932;6.674;2023-04-03T06:21:20;1.90;99.90
55213;DHT22;41083;52.932;6.674;2023-04-03T06:23:46;1.90;99.90
55213;DHT22;41083;52.932;6.674;2023-04-03T06:26:11;1.90;99.90
55213;DHT22;41083;52.932;6.674;2023-04-03T06:28:37;1.90;99.90
55213;DHT22;41083;52.932;6.674;2023-04-03T06:31:02;2.00;99.90
55213;DHT22;41083;52.932;6.674;2023-04-03T06:33:28;2.00;99.90
55213;DHT22;41083;52.932;6.674;2023-04-03T06:36:14;2.00;99.90
55213;DHT22;41083;52.932;6.674;2023-04-03T06:38:45;2.10;99.90
55213;DHT22;41083;52.932;6.674;2023-04-03T06:41:10;2.10;99.90
55213;DHT22;41083;52.932;6.674;2023-04-03T06:43:36;2.10;99.90
55213;DHT22;41083;52.932;6.674;2023-04-03T06:46:02;2.20;99.90
55213;DHT22;41083;52.932;6.674;2023-04-03T06:48:28;2.20;99.90
55213;DHT22;41083;52.932;6.674;2023-04-03T06:50:53;2.30;99.90
55213;DHT22;41083;52.932;6.674;2023-04-03T06:53:19;2.30;99.90
55213;DHT22;41083;52.932;6.674;2023-04-03T06:55:45;2.30;99.90
55213;DHT22;41083;52.932;6.674;2023-04-03T06:58:12;2.40;99.90
55213;DHT22;41083;52.932;6.674;2023-04-03T07:00:37;2.40;99.90
55213;DHT22;41083;52.932;6.674;2023-04-03T07:03:03;2.40;99.90
55213;DHT22;41083;52.932;6.674;2023-04-03T07:05:28;2.50;99.90
55213;DHT22;41083;52.932;6.674;2023-04-03T07:07:54;2.50;99.90
55213;DHT22;41083;52.932;6.674;2023-04-03T07:10:20;2.50;99.90
55213;DHT22;41083;52.932;6.674;2023-04-03T07:12:45;2.60;99.90
55213;DHT22;41083;52.932;6.674;2023-04-03T07:15:11;2.60;99.90
55213;DHT22;41083;52.932;6.674;2023-04-03T07:17:38;2.60;99.90
55213;DHT22;41083;52.932;6.674;2023-04-03T07:20:04;2.60;99.90
55213;DHT22;41083;52.932;6.674;2023-04-03T07:22:30;2.70;99.90
55213;DHT22;41083;52.932;6.674;2023-04-03T07:24:56;2.70;99.90
55213;DHT22;41083;52.932;6.674;2023-04-03T07:27:22;2.70;99.90
55213;DHT22;41083;52.932;6.674;2023-04-03T07:29:47;2.80;99.90
55213;DHT22;41083;52.932;6.674;2023-04-03T07:32:16;2.80;99.90
55213;DHT22;41083;52.932;6.674;2023-04-03T07:34:43;2.90;99.90
55213;DHT22;41083;52.932;6.674;2023-04-03T07:37:09;2.90;99.90
55213;DHT22;41083;52.932;6.674;2023-04-03T07:39:35;3.00;99.90
55213;DHT22;41083;52.932;6.674;2023-04-03T07:42:01;3.00;99.90
55213;DHT22;41083;52.932;6.674;2023-04-03T07:44:27;3.10;99.90
55213;DHT22;41083;52.932;6.674;2023-04-03T07:46:53;3.10;99.90
55213;DHT22;41083;52.932;6.674;2023-04-03T07:49:20;3.10;99.90
55213;DHT22;41083;52.932;6.674;2023-04-03T07:51:48;3.20;99.90
55213;DHT22;41083;52.932;6.674;2023-04-03T07:54:14;3.20;99.90
55213;DHT22;41083;52.932;6.674;2023-04-03T07:56:40;3.20;99.90
55213;DHT22;41083;52.932;6.674;2023-04-03T07:59:08;3.30;99.90
55213;DHT22;41083;52.932;6.674;2023-04-03T08:01:34;3.30;99.90
55213;DHT22;41083;52.932;6.674;2023-04-03T08:04:00;3.40;99.90
55213;DHT22;41083;52.932;6.674;2023-04-03T08:06:26;3.40;99.90
55213;DHT22;41083;52.932;6.674;2023-04-03T08:08:52;3.40;99.90
55213;DHT22;41083;52.932;6.674;2023-04-03T08:11:17;3.50;99.90
55213;DHT22;41083;52.932;6.674;2023-04-03T08:13:44;3.60;99.90
55213;DHT22;41083;52.932;6.674;2023-04-03T08:16:17;3.60;99.90
55213;DHT22;41083;52.932;6.674;2023-04-03T08:18:43;3.60;99.90
55213;DHT22;41083;52.932;6.674;2023-04-03T08:21:10;3.60;99.90
55213;DHT22;41083;52.932;6.674;2023-04-03T08:23:37;3.70;99.90
55213;DHT22;41083;52.932;6.674;2023-04-03T08:26:08;3.80;99.90
55213;DHT22;41083;52.932;6.674;2023-04-03T08:28:34;3.80;99.90
55213;DHT22;41083;52.932;6.674;2023-04-03T08:31:03;3.80;99.90
55213;DHT22;41083;52.932;6.674;2023-04-03T08:33:31;3.90;99.90
55213;DHT22;41083;52.932;6.674;2023-04-03T08:35:57;3.90;99.90
55213;DHT22;41083;52.932;6.674;2023-04-03T08:38:23;4.00;99.90
55213;DHT22;41083;52.932;6.674;2023-04-03T08:41:01;4.00;99.90
55213;DHT22;41083;52.932;6.674;2023-04-03T08:46:13;4.10;99.90
55213;DHT22;41083;52.932;6.674;2023-04-03T08:48:42;4.20;99.90
55213;DHT22;41083;52.932;6.674;2023-04-03T08:51:17;4.20;99.90
55213;DHT22;41083;52.932;6.674;2023-04-03T08:53:52;4.20;99.90
55213;DHT22;41083;52.932;6.674;2023-04-03T08:56:21;4.30;99.90
55213;DHT22;41083;52.932;6.674;2023-04-03T08:58:52;4.30;99.90
55213;DHT22;41083;52.932;6.674;2023-04-03T09:01:28;4.40;99.90
55213;DHT22;41083;52.932;6.674;2023-04-03T09:03:55;4.40;99.90
55213;DHT22;41083;52.932;6.674;2023-04-03T09:06:26;4.40;99.90
55213;DHT22;41083;52.932;6.674;2023-04-03T09:09:24;4.50;99.90
55213;DHT22;41083;52.932;6.674;2023-04-03T09:12:16;4.50;99.90
55213;DHT22;41083;52.932;6.674;2023-04-03T09:17:42;4.60;99.90
55213;DHT22;41083;52.932;6.674;2023-04-03T09:20:28;4.60;99.90
55213;DHT22;41083;52.932;6.674;2023-04-03T09:22:57;4.70;99.90
55213;DHT22;41083;52.932;6.674;2023-04-03T09:25:29;4.70;99.90
55213;DHT22;41083;52.932;6.674;2023-04-03T09:27:59;4.70;99.90
55213;DHT22;41083;52.932;6.674;2023-04-03T09:30:27;4.80;99.90
55213;DHT22;41083;52.932;6.674;2023-04-03T09:32:54;4.80;99.90
55213;DHT22;41083;52.932;6.674;2023-04-03T09:37:50;4.90;98.30
55213;DHT22;41083;52.932;6.674;2023-04-03T09:42:54;5.00;99.40
55213;DHT22;41083;52.932;6.674;2023-04-03T09:48:08;5.00;98.50
55213;DHT22;41083;52.932;6.674;2023-04-03T09:50:35;5.10;98.30
55213;DHT22;41083;52.932;6.674;2023-04-03T09:53:06;5.10;99.20
55213;DHT22;41083;52.932;6.674;2023-04-03T09:55:32;5.10;99.30
55213;DHT22;41083;52.932;6.674;2023-04-03T09:58:45;5.20;99.20
55213;DHT22;41083;52.932;6.674;2023-04-03T10:01:36;5.30;98.40
55213;DHT22;41083;52.932;6.674;2023-04-03T10:04:27;5.30;97.30
55213;DHT22;41083;52.932;6.674;2023-04-03T10:06:56;5.30;97.80
55213;DHT22;41083;52.932;6.674;2023-04-03T10:09:29;5.40;98.00
55213;DHT22;41083;52.932;6.674;2023-04-03T10:12:10;5.50;98.20
55213;DHT22;41083;52.932;6.674;2023-04-03T10:15:01;5.50;97.30
55213;DHT22;41083;52.932;6.674;2023-04-03T10:17:42;5.50;97.00
55213;DHT22;41083;52.932;6.674;2023-04-03T10:20:33;5.50;96.60
55213;DHT22;41083;52.932;6.674;2023-04-03T10:23:26;5.60;97.00
55213;DHT22;41083;52.932;6.674;2023-04-03T10:29:20;5.60;94.70
55213;DHT22;41083;52.932;6.674;2023-04-03T10:34:44;5.60;95.50
55213;DHT22;41083;52.932;6.674;2023-04-03T10:37:26;5.60;96.20
55213;DHT22;41083;52.932;6.674;2023-04-03T10:43:40;5.70;94.90
55213;DHT22;41083;52.932;6.674;2023-04-03T10:46:13;5.70;88.10
55213;DHT22;41083;52.932;6.674;2023-04-03T10:51:45;5.80;94.40
55213;DHT22;41083;52.932;6.674;2023-04-03T10:54:24;5.70;95.50
55213;DHT22;41083;52.932;6.674;2023-04-03T10:56:55;5.80;95.30
55213;DHT22;41083;52.932;6.674;2023-04-03T11:01:55;5.90;92.40
55213;DHT22;41083;52.932;6.674;2023-04-03T11:04:24;6.00;92.30
55213;DHT22;41083;52.932;6.674;2023-04-03T11:07:04;6.00;91.10
55213;DHT22;41083;52.932;6.674;2023-04-03T11:09:35;6.10;92.00
55213;DHT22;41083;52.932;6.674;2023-04-03T11:14:40;6.00;91.90
55213;DHT22;41083;52.932;6.674;2023-04-03T11:20:14;6.10;91.50
55213;DHT22;41083;52.932;6.674;2023-04-03T11:22:39;6.10;90.50
55213;DHT22;41083;52.932;6.674;2023-04-03T11:27:46;6.20;91.60
55213;DHT22;41083;52.932;6.674;2023-04-03T11:35:53;6.30;90.60
55213;DHT22;41083;52.932;6.674;2023-04-03T11:38:28;6.30;88.80
55213;DHT22;41083;52.932;6.674;2023-04-03T11:40:56;6.30;88.90
55213;DHT22;41083;52.932;6.674;2023-04-03T11:43:28;6.30;91.80
55213;DHT22;41083;52.932;6.674;2023-04-03T11:50:58;6.40;90.80
55213;DHT22;41083;52.932;6.674;2023-04-03T11:53:37;6.40;91.30
55213;DHT22;41083;52.932;6.674;2023-04-03T11:56:26;6.40;84.60
55213;DHT22;41083;52.932;6.674;2023-04-03T12:01:51;6.50;89.10
55213;DHT22;41083;52.932;6.674;2023-04-03T12:04:20;6.60;86.70
55213;DHT22;41083;52.932;6.674;2023-04-03T12:12:28;6.60;81.90
55213;DHT22;41083;52.932;6.674;2023-04-03T12:14:54;6.70;74.70
55213;DHT22;41083;52.932;6.674;2023-04-03T12:17:26;6.70;89.70
55213;DHT22;41083;52.932;6.674;2023-04-03T12:19:52;6.80;88.40
55213;DHT22;41083;52.932;6.674;2023-04-03T12:22:20;6.70;91.10
55213;DHT22;41083;52.932;6.674;2023-04-03T12:24:51;6.80;90.20
55213;DHT22;41083;52.932;6.674;2023-04-03T12:27:38;6.80;83.00
55213;DHT22;41083;52.932;6.674;2023-04-03T12:32:58;6.80;88.20
55213;DHT22;41083;52.932;6.674;2023-04-03T12:35:30;6.80;84.50
55213;DHT22;41083;52.932;6.674;2023-04-03T12:44:08;6.90;71.50
55213;DHT22;41083;52.932;6.674;2023-04-03T12:46:43;6.90;77.10
55213;DHT22;41083;52.932;6.674;2023-04-03T12:49:37;6.90;82.90
55213;DHT22;41083;52.932;6.674;2023-04-03T12:52:15;6.90;78.40
55213;DHT22;41083;52.932;6.674;2023-04-03T12:54:42;6.90;83.00
55213;DHT22;41083;52.932;6.674;2023-04-03T12:59:43;7.00;80.10
55213;DHT22;41083;52.932;6.674;2023-04-03T13:02:32;7.00;81.20
55213;DHT22;41083;52.932;6.674;2023-04-03T13:05:06;6.90;72.30
55213;DHT22;41083;52.932;6.674;2023-04-03T13:07:34;7.00;76.50
55213;DHT22;41083;52.932;6.674;2023-04-03T13:10:14;7.10;76.30
55213;DHT22;41083;52.932;6.674;2023-04-03T13:12:53;7.00;78.80
55213;DHT22;41083;52.932;6.674;2023-04-03T13:15:25;7.10;76.50
55213;DHT22;41083;52.932;6.674;2023-04-03T13:17:52;7.20;79.80
55213;DHT22;41083;52.932;6.674;2023-04-03T13:20:23;7.20;78.30
55213;DHT22;41083;52.932;6.674;2023-04-03T13:22:51;7.20;78.50
55213;DHT22;41083;52.932;6.674;2023-04-03T13:25:19;7.20;80.60
55213;DHT22;41083;52.932;6.674;2023-04-03T13:27:45;7.20;82.00
55213;DHT22;41083;52.932;6.674;2023-04-03T13:30:22;7.20;79.90
55213;DHT22;41083;52.932;6.674;2023-04-03T13:32:48;7.20;75.80
55213;DHT22;41083;52.932;6.674;2023-04-03T13:35:29;7.30;80.10
55213;DHT22;41083;52.932;6.674;2023-04-03T13:37:58;7.30;75.70
55213;DHT22;41083;52.932;6.674;2023-04-03T13:40:24;7.20;78.90
55213;DHT22;41083;52.932;6.674;2023-04-03T13:43:05;7.30;80.00
55213;DHT22;41083;52.932;6.674;2023-04-03T13:45:39;7.30;74.10
55213;DHT22;41083;52.932;6.674;2023-04-03T13:48:18;7.30;76.70
55213;DHT22;41083;52.932;6.674;2023-04-03T13:51:03;7.30;76.20
55213;DHT22;41083;52.932;6.674;2023-04-03T13:53:31;7.30;75.50
55213;DHT22;41083;52.932;6.674;2023-04-03T13:56:07;7.30;76.70
55213;DHT22;41083;52.932;6.674;2023-04-03T13:58:35;7.30;76.60
55213;DHT22;41083;52.932;6.674;2023-04-03T14:01:11;7.30;76.20
55213;DHT22;41083;52.932;6.674;2023-04-03T14:03:44;7.30;72.90
55213;DHT22;41083;52.932;6.674;2023-04-03T14:06:15;7.30;74.50
55213;DHT22;41083;52.932;6.674;2023-04-03T14:08:42;7.30;75.60
55213;DHT22;41083;52.932;6.674;2023-04-03T14:11:14;7.30;75.90
55213;DHT22;41083;52.932;6.674;2023-04-03T14:13:41;7.40;73.10
55213;DHT22;41083;52.932;6.674;2023-04-03T14:16:06;7.40;76.50
55213;DHT22;41083;52.932;6.674;2023-04-03T14:18:32;7.40;77.50
55213;DHT22;41083;52.932;6.674;2023-04-03T14:20:58;7.40;78.00
55213;DHT22;41083;52.932;6.674;2023-04-03T14:23:23;7.40;72.40
55213;DHT22;41083;52.932;6.674;2023-04-03T14:25:49;7.40;73.50
55213;DHT22;41083;52.932;6.674;2023-04-03T14:28:20;7.40;73.80
55213;DHT22;41083;52.932;6.674;2023-04-03T14:30:48;7.40;74.80
55213;DHT22;41083;52.932;6.674;2023-04-03T14:33:17;7.40;76.70
55213;DHT22;41083;52.932;6.674;2023-04-03T14:35:44;7.40;74.80
55213;DHT22;41083;52.932;6.674;2023-04-03T14:38:30;7.40;71.10
55213;DHT22;41083;52.932;6.674;2023-04-03T14:40:57;7.40;68.50
55213;DHT22;41083;52.932;6.674;2023-04-03T14:43:23;7.50;71.60
55213;DHT22;41083;52.932;6.674;2023-04-03T14:45:49;7.40;72.40
55213;DHT22;41083;52.932;6.674;2023-04-03T14:48:19;7.50;72.90
55213;DHT22;41083;52.932;6.674;2023-04-03T14:50:47;7.50;72.50
55213;DHT22;41083;52.932;6.674;2023-04-03T14:53:15;7.50;69.60
55213;DHT22;41083;52.932;6.674;2023-04-03T14:55:44;7.50;71.30
55213;DHT22;41083;52.932;6.674;2023-04-03T14:58:15;7.60;69.90
55213;DHT22;41083;52.932;6.674;2023-04-03T15:00:41;7.60;68.10
55213;DHT22;41083;52.932;6.674;2023-04-03T15:03:19;7.60;67.20
55213;DHT22;41083;52.932;6.674;2023-04-03T15:05:47;7.70;64.90
55213;DHT22;41083;52.932;6.674;2023-04-03T15:08:21;7.70;66.20
55213;DHT22;41083;52.932;6.674;2023-04-03T15:10:48;7.60;65.00
55213;DHT22;41083;52.932;6.674;2023-04-03T15:13:14;7.60;68.60
55213;DHT22;41083;52.932;6.674;2023-04-03T15:15:39;7.60;67.40
55213;DHT22;41083;52.932;6.674;2023-04-03T15:18:05;7.70;65.10
55213;DHT22;41083;52.932;6.674;2023-04-03T15:20:31;7.70;66.60
55213;DHT22;41083;52.932;6.674;2023-04-03T15:22:59;7.60;67.90
55213;DHT22;41083;52.932;6.674;2023-04-03T15:25:29;7.60;66.20
55213;DHT22;41083;52.932;6.674;2023-04-03T15:27:56;7.60;68.40
55213;DHT22;41083;52.932;6.674;2023-04-03T15:30:22;7.60;65.50
55213;DHT22;41083;52.932;6.674;2023-04-03T15:32:48;7.60;67.00
55213;DHT22;41083;52.932;6.674;2023-04-03T15:35:14;7.50;68.70
55213;DHT22;41083;52.932;6.674;2023-04-03T15:37:39;7.60;68.30
55213;DHT22;41083;52.932;6.674;2023-04-03T15:40:06;7.50;68.70
55213;DHT22;41083;52.932;6.674;2023-04-03T15:42:32;7.50;69.70
55213;DHT22;41083;52.932;6.674;2023-04-03T15:44:58;7.50;70.30
55213;DHT22;41083;52.932;6.674;2023-04-03T15:47:24;7.50;66.10
55213;DHT22;41083;52.932;6.674;2023-04-03T15:49:50;7.60;66.00
55213;DHT22;41083;52.932;6.674;2023-04-03T15:52:16;7.60;65.90
55213;DHT22;41083;52.932;6.674;2023-04-03T15:54:42;7.60;66.50
55213;DHT22;41083;52.932;6.674;2023-04-03T15:57:07;7.50;67.70
55213;DHT22;41083;52.932;6.674;2023-04-03T15:59:33;7.60;67.10
55213;DHT22;41083;52.932;6.674;2023-04-03T16:01:59;7.50;66.80
55213;DHT22;41083;52.932;6.674;2023-04-03T16:04:27;7.50;68.10
55213;DHT22;41083;52.932;6.674;2023-04-03T16:06:52;7.50;67.60
55213;DHT22;41083;52.932;6.674;2023-04-03T16:09:18;7.50;64.70
55213;DHT22;41083;52.932;6.674;2023-04-03T16:11:43;7.60;65.80
55213;DHT22;41083;52.932;6.674;2023-04-03T16:14:10;7.50;64.90
55213;DHT22;41083;52.932;6.674;2023-04-03T16:16:35;7.50;65.70
55213;DHT22;41083;52.932;6.674;2023-04-03T16:19:02;7.50;65.70
55213;DHT22;41083;52.932;6.674;2023-04-03T16:21:28;7.50;67.10
55213;DHT22;41083;52.932;6.674;2023-04-03T16:23:59;7.50;63.60
55213;DHT22;41083;52.932;6.674;2023-04-03T16:26:25;7.50;63.50
55213;DHT22;41083;52.932;6.674;2023-04-03T16:28:52;7.50;64.60
55213;DHT22;41083;52.932;6.674;2023-04-03T16:31:18;7.50;64.70
55213;DHT22;41083;52.932;6.674;2023-04-03T16:33:44;7.50;64.10
55213;DHT22;41083;52.932;6.674;2023-04-03T16:36:09;7.40;64.90
55213;DHT22;41083;52.932;6.674;2023-04-03T16:38:35;7.50;62.80
55213;DHT22;41083;52.932;6.674;2023-04-03T16:41:01;7.40;64.70
55213;DHT22;41083;52.932;6.674;2023-04-03T16:43:30;7.50;63.00
55213;DHT22;41083;52.932;6.674;2023-04-03T16:45:56;7.50;65.10
55213;DHT22;41083;52.932;6.674;2023-04-03T16:48:22;7.50;65.60
55213;DHT22;41083;52.932;6.674;2023-04-03T16:50:48;7.40;65.50
55213;DHT22;41083;52.932;6.674;2023-04-03T16:53:16;7.40;64.00
55213;DHT22;41083;52.932;6.674;2023-04-03T16:55:41;7.40;64.70
55213;DHT22;41083;52.932;6.674;2023-04-03T16:58:07;7.40;65.00
55213;DHT22;41083;52.932;6.674;2023-04-03T17:00:33;7.50;63.20
55213;DHT22;41083;52.932;6.674;2023-04-03T17:02:59;7.50;63.20
55213;DHT22;41083;52.932;6.674;2023-04-03T17:05:25;7.40;62.50
55213;DHT22;41083;52.932;6.674;2023-04-03T17:07:51;7.50;63.60
55213;DHT22;41083;52.932;6.674;2023-04-03T17:10:16;7.50;63.20